Cruise inventory

Almeida Carvalho AC99

Cruise plan

Cruise Info. 
Ship name (ship code)Almeida Carvalho (68CA)
Cruise identifierAC99
Cruise period1999-05-03 — 1999-05-30
StatusCompleted
Port of departureLisbon, Portugal
Port of returnLisbon, Portugal
PurposeResearch
ObjectivesWP2 slope survey to study the physical, chemical and biological properties in the continental shelf and shelf break zone of the Galician coast near the Rias Baixas during summer.
Chief scientistJoao Vitorino (Portuguese Hydrographic Institute)
ProjectOMEX2
Ocean/sea areas 
GeneralNorth East Atlantic Ocean (limit 40W)
SpecificNorth Atlantic 40-42 N 8-11W
Data held at BODC 
Series/Profiles 
157  CTD/STD cast
Density of the water column
Vertical spatial coordinates
Salinity of the water column
Concentration of suspended particulate material in the water column
Temperature of the water column
Density of the water column
Vertical spatial coordinates
Salinity of the water column
Concentration of suspended particulate material in the water column
Temperature of the water column

BODC idDate/TimeLocationDoc.
8778901999-05-26 17:55 41° 9' 11" N  9° 11' 35" W  View metadata report for BODC series reference number 877890
8779081999-05-26 19:10 41° 8' 59" N  9° 5' 30" W  View metadata report for BODC series reference number 877908
8779211999-05-26 20:00 41° 9' 11" N  9° 0' 29" W  View metadata report for BODC series reference number 877921
8779331999-05-26 20:57 41° 9' 11" N  8° 57' 42" W  View metadata report for BODC series reference number 877933
8779451999-05-26 21:47 41° 9' 11" N  8° 53' 24" W  View metadata report for BODC series reference number 877945
8779571999-05-26 22:35 41° 9' 11" N  8° 49' 29" W  View metadata report for BODC series reference number 877957
8779691999-05-27 00:08 41° 9' 24" N  8° 42' 47" W  View metadata report for BODC series reference number 877969
8779701999-05-27 01:56 41° 0' 11" N  8° 43' 48" W  View metadata report for BODC series reference number 877970
8779821999-05-27 02:55 41° 0' 0" N  8° 49' 12" W  View metadata report for BODC series reference number 877982
8779941999-05-27 04:09 41° 0' 6" N  8° 56' 59" W  View metadata report for BODC series reference number 877994
8780081999-05-27 05:49 41° 0' 6" N  9° 4' 48" W  View metadata report for BODC series reference number 878008
8780211999-05-27 07:04 41° 0' 6" N  9° 13' 48" W  View metadata report for BODC series reference number 878021
8780331999-05-27 08:43 41° 0' 6" N  9° 18' 47" W  View metadata report for BODC series reference number 878033
8780451999-05-27 09:30 41° 0' 6" N  9° 21' 35" W  View metadata report for BODC series reference number 878045
8780571999-05-27 10:37 41° 0' 0" N  9° 23' 53" W  View metadata report for BODC series reference number 878057
8780691999-05-27 12:07 41° 0' 11" N  9° 30' 0" W  View metadata report for BODC series reference number 878069
8780701999-05-27 14:27 41° 0' 18" N  9° 37' 5" W  View metadata report for BODC series reference number 878070
8780821999-05-27 16:30 41° 0' 24" N  9° 42' 18" W  View metadata report for BODC series reference number 878082
8780941999-05-27 19:26 41° 0' 0" N  9° 52' 0" W  View metadata report for BODC series reference number 878094
8781011999-05-27 21:32 40° 59' 53" N  9° 59' 48" W  View metadata report for BODC series reference number 878101
8781131999-05-27 23:27 40° 59' 48" N  10° 5' 53" W  View metadata report for BODC series reference number 878113
8781251999-05-28 01:15 41° 0' 6" N  10° 11' 59" W  View metadata report for BODC series reference number 878125
8781371999-05-28 03:20 41° 0' 0" N  10° 22' 5" W  View metadata report for BODC series reference number 878137
8781491999-05-28 05:37 41° 0' 6" N  10° 34' 54" W  View metadata report for BODC series reference number 878149
8781501999-05-28 08:26 41° 0' 0" N  10° 49' 54" W  View metadata report for BODC series reference number 878150
8781621999-05-28 10:53 41° 0' 0" N  10° 59' 48" W  View metadata report for BODC series reference number 878162
8781741999-05-08 11:03 41° 19' 36" N  8° 59' 24" W  View metadata report for BODC series reference number 878174
8781861999-05-22 00:07 41° 29' 53" N  9° 3' 6" W  View metadata report for BODC series reference number 878186
8781981999-05-24 01:55 41° 19' 59" N  9° 5' 59" W  View metadata report for BODC series reference number 878198
8782051999-05-24 11:28 41° 20' 6" N  9° 37' 0" W  View metadata report for BODC series reference number 878205
8782171999-05-25 01:38 41° 20' 6" N  10° 26' 59" W  View metadata report for BODC series reference number 878217
8782291999-05-25 17:30 41° 9' 6" N  10° 39' 47" W  View metadata report for BODC series reference number 878229
8782301999-05-26 10:18 41° 9' 6" N  9° 35' 48" W  View metadata report for BODC series reference number 878230
8782421999-05-18 21:50 41° 40' 41" N  9° 4' 59" W  View metadata report for BODC series reference number 878242
8782541999-05-22 03:03 41° 29' 12" N  8° 56' 6" W  View metadata report for BODC series reference number 878254
8782661999-05-22 04:20 41° 29' 48" N  8° 50' 6" W  View metadata report for BODC series reference number 878266
8782781999-05-23 22:30 41° 20' 6" N  8° 49' 36" W  View metadata report for BODC series reference number 878278
8782911999-05-23 23:07 41° 20' 6" N  8° 53' 48" W  View metadata report for BODC series reference number 878291
8783091999-05-24 00:00 41° 20' 6" N  8° 58' 18" W  View metadata report for BODC series reference number 878309
8783101999-05-24 00:02 41° 19' 59" N  9° 2' 6" W  View metadata report for BODC series reference number 878310
8783221999-05-24 02:35 41° 19' 59" N  9° 8' 35" W  View metadata report for BODC series reference number 878322
8783341999-05-24 03:20 41° 20' 6" N  9° 10' 30" W  View metadata report for BODC series reference number 878334
8783461999-05-24 04:20 41° 20' 6" N  9° 14' 17" W  View metadata report for BODC series reference number 878346
8783581999-05-24 05:54 41° 19' 59" N  9° 19' 5" W  View metadata report for BODC series reference number 878358
8783711999-05-24 07:45 41° 20' 6" N  9° 24' 36" W  View metadata report for BODC series reference number 878371
8783831999-05-24 09:32 41° 20' 6" N  9° 29' 48" W  View metadata report for BODC series reference number 878383
8783951999-05-24 15:54 41° 20' 6" N  9° 49' 59" W  View metadata report for BODC series reference number 878395
8784021999-05-24 17:40 41° 19' 59" N  9° 55' 0" W  View metadata report for BODC series reference number 878402
8784141999-05-24 19:40 41° 19' 59" N  10° 3' 0" W  View metadata report for BODC series reference number 878414
8784261999-05-24 21:40 41° 19' 59" N  10° 10' 59" W  View metadata report for BODC series reference number 878426
8784381999-05-24 23:35 41° 20' 6" N  10° 19' 0" W  View metadata report for BODC series reference number 878438
8784511999-05-25 03:35 41° 20' 6" N  10° 34' 54" W  View metadata report for BODC series reference number 878451
8784631999-05-25 05:31 41° 20' 6" N  10° 43' 5" W  View metadata report for BODC series reference number 878463
8784751999-05-25 07:30 41° 20' 6" N  10° 50' 59" W  View metadata report for BODC series reference number 878475
8784871999-05-25 09:33 41° 19' 59" N  11° 0' 0" W  View metadata report for BODC series reference number 878487
8784991999-05-25 13:53 41° 8' 59" N  10° 52' 0" W  View metadata report for BODC series reference number 878499
8785061999-05-25 15:52 41° 8' 59" N  10° 43' 59" W  View metadata report for BODC series reference number 878506
8785181999-05-25 19:48 41° 9' 6" N  10° 31' 5" W  View metadata report for BODC series reference number 878518
8785311999-05-25 21:42 41° 9' 6" N  10° 24' 0" W  View metadata report for BODC series reference number 878531
8785431999-05-25 23:46 41° 9' 6" N  10° 16' 5" W  View metadata report for BODC series reference number 878543
8785551999-05-26 01:55 41° 8' 48" N  10° 8' 5" W  View metadata report for BODC series reference number 878555
8785671999-05-26 03:55 41° 8' 59" N  10° 0' 0" W  View metadata report for BODC series reference number 878567
8785791999-05-26 06:03 41° 9' 11" N  9° 51' 47" W  View metadata report for BODC series reference number 878579
8785801999-05-26 12:19 41° 9' 11" N  9° 30' 0" W  View metadata report for BODC series reference number 878580
8785921999-05-26 14:05 41° 9' 6" N  9° 24' 11" W  View metadata report for BODC series reference number 878592
8786111999-05-26 15:10 41° 9' 6" N  9° 21' 18" W  View metadata report for BODC series reference number 878611
8786231999-05-26 16:06 41° 8' 59" N  9° 19' 5" W  View metadata report for BODC series reference number 878623
8786351999-05-26 17:05 41° 8' 59" N  9° 16' 0" W  View metadata report for BODC series reference number 878635
8786471999-05-08 12:02 41° 19' 41" N  8° 59' 12" W  View metadata report for BODC series reference number 878647
8786591999-05-18 14:00 41° 21' 17" N  9° 20' 35" W  View metadata report for BODC series reference number 878659
8786601999-05-18 19:35 41° 40' 54" N  8° 53' 17" W  View metadata report for BODC series reference number 878660
8786721999-05-18 20:45 41° 40' 54" N  8° 58' 48" W  View metadata report for BODC series reference number 878672
8786841999-05-18 23:14 41° 40' 59" N  9° 13' 41" W  View metadata report for BODC series reference number 878684
8786961999-05-19 00:20 41° 40' 54" N  9° 18' 47" W  View metadata report for BODC series reference number 878696
8787031999-05-19 01:37 41° 40' 59" N  9° 23' 5" W  View metadata report for BODC series reference number 878703
8787151999-05-19 02:15 41° 40' 59" N  9° 25' 18" W  View metadata report for BODC series reference number 878715
8787271999-05-19 07:21 41° 40' 59" N  9° 37' 18" W  View metadata report for BODC series reference number 878727
8787391999-05-19 12:00 41° 40' 54" N  9° 52' 11" W  View metadata report for BODC series reference number 878739
8787401999-05-19 14:10 41° 41' 6" N  9° 59' 48" W  View metadata report for BODC series reference number 878740
8787521999-05-19 16:15 41° 40' 54" N  10° 7' 59" W  View metadata report for BODC series reference number 878752
8787641999-05-19 17:55 41° 40' 59" N  10° 14' 5" W  View metadata report for BODC series reference number 878764
8787761999-05-19 19:55 41° 41' 6" N  10° 20' 59" W  View metadata report for BODC series reference number 878776
8787881999-05-19 21:56 41° 40' 59" N  10° 27' 6" W  View metadata report for BODC series reference number 878788
8788071999-05-20 02:00 41° 40' 59" N  10° 40' 59" W  View metadata report for BODC series reference number 878807
8788191999-05-20 03:45 41° 41' 6" N  10° 46' 59" W  View metadata report for BODC series reference number 878819
8788201999-05-20 05:35 41° 41' 12" N  10° 51' 54" W  View metadata report for BODC series reference number 878820
8788321999-05-20 10:01 41° 29' 48" N  11° 0' 0" W  View metadata report for BODC series reference number 878832
8788441999-05-20 12:03 41° 30' 0" N  10° 51' 47" W  View metadata report for BODC series reference number 878844
8788561999-05-20 13:56 41° 30' 47" N  10° 46' 23" W  View metadata report for BODC series reference number 878856
8788681999-05-20 17:49 41° 30' 0" N  10° 33' 53" W  View metadata report for BODC series reference number 878868
8788811999-05-20 19:47 41° 30' 0" N  10° 26' 53" W  View metadata report for BODC series reference number 878881
8788931999-05-20 21:43 41° 29' 48" N  10° 20' 59" W  View metadata report for BODC series reference number 878893
8789001999-05-20 23:40 41° 29' 53" N  10° 14' 5" W  View metadata report for BODC series reference number 878900
8789121999-05-21 01:39 41° 30' 6" N  10° 7' 48" W  View metadata report for BODC series reference number 878912
8789241999-05-21 03:40 41° 30' 0" N  10° 7' 48" W  View metadata report for BODC series reference number 878924
8789361999-05-21 05:56 41° 30' 11" N  9° 52' 30" W  View metadata report for BODC series reference number 878936
8789481999-05-21 12:35 41° 29' 48" N  9° 30' 6" W  View metadata report for BODC series reference number 878948
8789611999-05-21 14:22 41° 29' 48" N  9° 25' 54" W  View metadata report for BODC series reference number 878961
8789731999-05-21 16:12 41° 31' 5" N  9° 20' 35" W  View metadata report for BODC series reference number 878973
8789851999-05-21 18:13 41° 31' 5" N  9° 17' 6" W  View metadata report for BODC series reference number 878985
8789971999-05-21 20:08 41° 30' 0" N  9° 15' 11" W  View metadata report for BODC series reference number 878997
8790001999-05-21 23:30 41° 29' 41" N  9° 8' 41" W  View metadata report for BODC series reference number 879000
8790121999-05-06 16:05 41° 19' 41" N  8° 59' 24" W  View metadata report for BODC series reference number 879012
8790241999-05-06 17:00 41° 19' 30" N  8° 59' 24" W  View metadata report for BODC series reference number 879024
8790361999-05-06 18:00 41° 19' 23" N  8° 59' 17" W  View metadata report for BODC series reference number 879036
8790481999-05-06 19:00 41° 19' 41" N  8° 59' 12" W  View metadata report for BODC series reference number 879048
8790611999-05-06 20:00 41° 19' 36" N  8° 59' 12" W  View metadata report for BODC series reference number 879061
8790731999-05-06 21:00 41° 19' 54" N  8° 59' 17" W  View metadata report for BODC series reference number 879073
8790851999-05-06 23:00 41° 19' 41" N  8° 59' 12" W  View metadata report for BODC series reference number 879085
8790971999-05-07 00:00 41° 19' 47" N  8° 59' 12" W  View metadata report for BODC series reference number 879097
8791041999-05-07 02:00 41° 19' 36" N  8° 59' 17" W  View metadata report for BODC series reference number 879104
8791161999-05-07 03:00 41° 19' 30" N  8° 59' 12" W  View metadata report for BODC series reference number 879116
8791281999-05-07 04:00 41° 19' 36" N  8° 59' 24" W  View metadata report for BODC series reference number 879128
8791411999-05-07 06:04 41° 19' 41" N  8° 59' 12" W  View metadata report for BODC series reference number 879141
8791531999-05-07 07:04 41° 19' 41" N  8° 59' 12" W  View metadata report for BODC series reference number 879153
8791651999-05-07 08:15 41° 19' 36" N  8° 58' 54" W  View metadata report for BODC series reference number 879165
8791771999-05-07 09:05 41° 19' 30" N  8° 59' 17" W  View metadata report for BODC series reference number 879177
8791891999-05-07 09:58 41° 19' 36" N  8° 58' 59" W  View metadata report for BODC series reference number 879189
8791901999-05-07 10:58 41° 19' 41" N  8° 58' 59" W  View metadata report for BODC series reference number 879190
8792081999-05-07 14:03 41° 19' 54" N  8° 59' 12" W  View metadata report for BODC series reference number 879208
8792211999-05-07 15:02 41° 19' 47" N  8° 59' 17" W  View metadata report for BODC series reference number 879221
8792331999-05-07 16:02 41° 19' 30" N  8° 59' 12" W  View metadata report for BODC series reference number 879233
8792451999-05-07 17:12 41° 19' 41" N  8° 59' 17" W  View metadata report for BODC series reference number 879245
8792571999-05-07 19:02 41° 19' 36" N  8° 59' 17" W  View metadata report for BODC series reference number 879257
8792691999-05-07 20:05 41° 19' 47" N  8° 58' 59" W  View metadata report for BODC series reference number 879269
8792701999-05-07 21:08 41° 19' 47" N  8° 59' 5" W  View metadata report for BODC series reference number 879270
8792821999-05-07 22:06 41° 19' 41" N  8° 59' 12" W  View metadata report for BODC series reference number 879282
8792941999-05-07 23:14 41° 19' 36" N  8° 59' 53" W  View metadata report for BODC series reference number 879294
8793011999-05-08 00:10 41° 19' 41" N  8° 59' 5" W  View metadata report for BODC series reference number 879301
8793131999-05-08 02:58 41° 19' 23" N  8° 58' 54" W  View metadata report for BODC series reference number 879313
8793251999-05-08 04:00 41° 19' 36" N  8° 59' 24" W  View metadata report for BODC series reference number 879325
8793371999-05-08 05:00 41° 19' 36" N  8° 59' 24" W  View metadata report for BODC series reference number 879337
8793491999-05-08 06:00 41° 19' 23" N  8° 59' 12" W  View metadata report for BODC series reference number 879349
8793501999-05-08 07:02 41° 19' 47" N  8° 59' 17" W  View metadata report for BODC series reference number 879350
8793621999-05-08 08:04 41° 19' 47" N  8° 59' 12" W  View metadata report for BODC series reference number 879362
8793741999-05-08 10:05 41° 19' 41" N  8° 59' 24" W  View metadata report for BODC series reference number 879374
8793861999-05-19 10:08 41° 40' 29" N  9° 44' 30" W  View metadata report for BODC series reference number 879386
8793981999-05-19 23:55 41° 41' 6" N  10° 34' 0" W  View metadata report for BODC series reference number 879398
8794051999-05-20 15:52 41° 30' 11" N  10° 40' 47" W  View metadata report for BODC series reference number 879405
8794171999-05-21 08:20 41° 30' 11" N  9° 45' 0" W  View metadata report for BODC series reference number 879417
8794291999-05-21 22:10 41° 30' 6" N  9° 12' 11" W  View metadata report for BODC series reference number 879429
8794301999-05-06 22:00 41° 19' 41" N  8° 59' 12" W  View metadata report for BODC series reference number 879430
8794421999-05-07 05:04 41° 19' 41" N  8° 59' 5" W  View metadata report for BODC series reference number 879442
8794541999-05-07 12:01 41° 19' 36" N  8° 59' 24" W  View metadata report for BODC series reference number 879454
8794661999-05-07 18:06 41° 19' 36" N  8° 59' 17" W  View metadata report for BODC series reference number 879466
8794781999-05-08 01:00 41° 19' 23" N  8° 58' 54" W  View metadata report for BODC series reference number 879478
8794911999-05-08 09:06 41° 19' 54" N  8° 59' 24" W  View metadata report for BODC series reference number 879491
8795091999-05-23 21:18 41° 19' 59" N  8° 46' 47" W  View metadata report for BODC series reference number 879509
8795101999-05-24 14:10 41° 19' 59" N  9° 45' 0" W  View metadata report for BODC series reference number 879510
8795221999-05-25 11:50 41° 8' 59" N  11° 0' 0" W  View metadata report for BODC series reference number 879522
8795341999-05-26 07:59 41° 9' 6" N  9° 43' 48" W  View metadata report for BODC series reference number 879534
8795461999-05-19 05:10 41° 40' 59" N  9° 29' 48" W  View metadata report for BODC series reference number 879546
8795581999-05-20 07:35 41° 41' 6" N  11° 0' 6" W  View metadata report for BODC series reference number 879558
8795711999-05-21 10:23 41° 29' 53" N  9° 37' 11" W  View metadata report for BODC series reference number 879571
8795831999-05-07 01:00 41° 19' 47" N  8° 59' 24" W  View metadata report for BODC series reference number 879583
8795951999-05-07 13:01 41° 19' 23" N  8° 59' 17" W  View metadata report for BODC series reference number 879595
8796021999-05-08 02:00 41° 19' 23" N  8° 59' 12" W  View metadata report for BODC series reference number 879602
4  Paddle wheel current meter
Moored instrument depth
Salinity of the water column
Horizontal velocity of the water column (currents)
Temperature of the water column
Date and time
Moored instrument depth
Salinity of the water column
Horizontal velocity of the water column (currents)
Temperature of the water column
Date and time

BODC idDate/TimeLocationDoc.
5307681999-05-05 16:00  — 1999-09-10 16:00 41° 22' 11" N  9° 18' 17" W  View metadata report for BODC series reference number 530768
5307561999-05-05 16:00  — 1999-08-15 06:00 41° 22' 11" N  9° 18' 17" W  View metadata report for BODC series reference number 530756
5307811999-05-05 16:00  — 1999-08-31 23:00 41° 22' 11" N  9° 18' 17" W  View metadata report for BODC series reference number 530781
5307441999-05-05 16:00  — 1999-09-06 12:00 41° 22' 11" N  9° 18' 17" W  View metadata report for BODC series reference number 530744
1  Thermistor chain
Moored instrument depth
Vertical spatial coordinates
Temperature of the water column
Date and time
Moored instrument depth
Vertical spatial coordinates
Temperature of the water column
Date and time

BODC idDate/TimeLocationDoc.
5531531999-05-05 16:00  — 1999-08-25 01:00 41° 22' 11" N  9° 18' 17" W  View metadata report for BODC series reference number 553153
Discrete samples 
123  CTD frame plus rosette samplerCarbon concentrations in suspended particulate material
Bacterial consumption in the water column
Particulate total and organic carbon concentrations in the water column
Density of the water column
Bacteria non taxonomy-related biomass expressed as carbon per unit volume of the water column
Bacteria generic abundance in water bodies
Bacterial production in the water column
Salinity of the water column
Concentration of suspended particulate material in the water column
Temperature of the water column
3  Sample taken from ship's non-toxic supplyBacterial consumption in the water column
21  Shipek grabSediment grain size parameters